Time,TemperatureF,DewpointF,PressureIn,WindDirection,WindDirectionDegrees,WindSpeedMPH,WindSpeedGustMPH,Humidity,HourlyPrecipIn,Conditions,Clouds,dailyrainin,SoftwareType,DateUTC
2013-07-26 00:03:00,56.5,52.4,29.99,North,0,0.0,-999.0,86,0.00,,,-99.99,,2013-07-26 08:03:00,
2013-07-26 00:08:00,56.4,52.5,29.99,North,0,0.0,-999.0,86,0.00,,,-99.99,,2013-07-26 08:08:00,
2013-07-26 00:13:00,56.5,52.7,29.99,North,0,0.0,-999.0,87,0.00,,,-99.99,,2013-07-26 08:13:00,
2013-07-26 00:18:00,56.8,52.9,29.99,North,0,0.0,-999.0,86,0.00,,,-99.99,,2013-07-26 08:18:00,
2013-07-26 00:23:00,57.3,53.0,29.99,North,0,0.0,-999.0,85,0.00,,,-99.99,,2013-07-26 08:23:00,
2013-07-26 00:28:00,57.3,52.7,29.99,North,0,0.0,-999.0,84,0.00,,,-99.99,,2013-07-26 08:28:00,
2013-07-26 00:33:00,56.9,52.7,29.99,North,0,0.0,-999.0,85,0.00,,,-99.99,,2013-07-26 08:33:00,
2013-07-26 00:38:00,56.7,52.7,29.99,North,0,0.0,-999.0,86,0.00,,,-99.99,,2013-07-26 08:38:00,
2013-07-26 00:43:00,56.8,52.9,29.99,North,0,0.0,-999.0,86,0.00,,,-99.99,,2013-07-26 08:43:00,
2013-07-26 00:48:00,56.8,53.0,29.99,North,0,0.0,-999.0,86,0.00,,,-99.99,,2013-07-26 08:48:00,
2013-07-26 00:53:00,56.8,53.0,29.99,North,0,0.0,-999.0,86,0.00,,,-99.99,,2013-07-26 08:53:00,
2013-07-26 00:58:00,56.6,52.8,29.99,North,0,0.0,-999.0,86,0.00,,,-99.99,,2013-07-26 08:58:00,
2013-07-26 01:03:00,56.4,52.7,29.99,North,0,0.0,-999.0,87,0.00,,,-99.99,,2013-07-26 09:03:00,
2013-07-26 01:08:00,56.2,52.9,29.99,North,0,0.0,-999.0,88,0.00,,,-99.99,,2013-07-26 09:08:00,
2013-07-26 01:13:00,56.6,53.2,29.99,North,0,0.0,-999.0,88,0.00,,,-99.99,,2013-07-26 09:13:00,
2013-07-26 01:18:00,56.9,53.4,29.99,North,0,0.0,-999.0,88,0.00,,,-99.99,,2013-07-26 09:18:00,
2013-07-26 01:23:00,57.2,53.6,29.99,North,0,0.0,-999.0,87,0.00,,,-99.99,,2013-07-26 09:23:00,
2013-07-26 01:28:00,57.2,53.7,29.99,North,0,0.0,-999.0,87,0.00,,,-99.99,,2013-07-26 09:28:00,
2013-07-26 01:33:00,57.5,53.7,29.99,North,0,0.0,-999.0,87,0.00,,,-99.99,,2013-07-26 09:33:00,
2013-07-26 01:38:00,57.5,53.8,29.99,North,0,0.0,-999.0,87,0.00,,,-99.99,,2013-07-26 09:38:00,
2013-07-26 01:43:00,57.5,53.7,29.99,North,0,0.0,-999.0,86,0.00,,,-99.99,,2013-07-26 09:43:00,
2013-07-26 01:48:00,57.5,53.6,29.99,North,0,0.0,-999.0,86,0.00,,,-99.99,,2013-07-26 09:48:00,
2013-07-26 01:53:00,57.6,53.7,29.99,North,0,0.0,-999.0,86,0.00,,,-99.99,,2013-07-26 09:53:00,
2013-07-26 01:58:00,57.6,53.6,29.99,North,0,0.0,-999.0,86,0.00,,,-99.99,,2013-07-26 09:58:00,
2013-07-26 02:03:00,57.5,53.5,30.01,North,0,0.0,-999.0,86,0.00,,,-99.99,,2013-07-26 10:03:00,
2013-07-26 02:08:00,57.2,53.2,30.01,North,0,0.0,-999.0,86,0.00,,,-99.99,,2013-07-26 10:08:00,
2013-07-26 02:13:00,57.3,53.4,30.01,North,0,0.0,-999.0,86,0.00,,,-99.99,,2013-07-26 10:13:00,
2013-07-26 02:18:00,57.0,53.3,30.01,North,0,0.0,-999.0,87,0.00,,,-99.99,,2013-07-26 10:18:00,
2013-07-26 02:23:00,57.2,53.5,30.01,North,0,0.0,-999.0,87,0.00,,,-99.99,,2013-07-26 10:23:00,
2013-07-26 02:28:00,56.9,53.3,30.01,North,0,0.0,-999.0,87,0.00,,,-99.99,,2013-07-26 10:28:00,
2013-07-26 02:33:00,56.9,53.4,30.01,North,0,0.0,-999.0,88,0.00,,,-99.99,,2013-07-26 10:33:00,
2013-07-26 02:38:00,56.9,53.5,30.01,North,0,0.0,-999.0,88,0.00,,,-99.99,,2013-07-26 10:38:00,
2013-07-26 02:43:00,56.9,53.4,30.01,North,0,0.0,-999.0,88,0.00,,,-99.99,,2013-07-26 10:43:00,
2013-07-26 02:48:00,56.7,53.2,30.01,North,0,0.0,-999.0,88,0.00,,,-99.99,,2013-07-26 10:48:00,
2013-07-26 02:53:00,56.7,53.3,30.01,North,0,0.0,-999.0,88,0.00,,,-99.99,,2013-07-26 10:53:00,
2013-07-26 02:58:00,56.3,52.9,30.01,North,0,0.0,-999.0,88,0.00,,,-99.99,,2013-07-26 10:58:00,
2013-07-26 03:03:00,56.3,53.0,30.01,North,0,0.0,-999.0,88,0.00,,,-99.99,,2013-07-26 11:03:00,
2013-07-26 03:08:00,56.1,52.7,30.01,North,0,0.0,-999.0,88,0.00,,,-99.99,,2013-07-26 11:08:00,
2013-07-26 03:13:00,55.9,52.6,30.01,North,0,0.0,-999.0,88,0.00,,,-99.99,,2013-07-26 11:13:00,
2013-07-26 03:18:00,55.8,52.6,30.01,North,0,0.0,-999.0,89,0.00,,,-99.99,,2013-07-26 11:18:00,
2013-07-26 03:23:00,55.8,52.6,30.01,North,0,0.0,-999.0,89,0.00,,,-99.99,,2013-07-26 11:23:00,
2013-07-26 03:28:00,56.0,52.7,30.01,North,0,0.0,-999.0,88,0.00,,,-99.99,,2013-07-26 11:28:00,
2013-07-26 03:33:00,55.7,52.4,30.01,North,0,0.0,-999.0,88,0.00,,,-99.99,,2013-07-26 11:33:00,
2013-07-26 03:39:00,55.7,52.5,30.01,North,0,0.0,-999.0,89,0.00,,,-99.99,,2013-07-26 11:39:00,
2013-07-26 03:44:00,55.7,52.6,30.01,North,0,0.0,-999.0,89,0.00,,,-99.99,,2013-07-26 11:44:00,
2013-07-26 03:49:00,55.6,52.5,30.01,North,0,0.0,-999.0,89,0.00,,,-99.99,,2013-07-26 11:49:00,
2013-07-26 03:54:00,55.5,52.4,30.01,North,0,0.0,-999.0,89,0.00,,,-99.99,,2013-07-26 11:54:00,
2013-07-26 03:59:00,55.5,52.4,30.01,North,0,0.0,-999.0,89,0.00,,,-99.99,,2013-07-26 11:59:00,
2013-07-26 04:04:00,55.3,52.3,30.03,North,0,0.0,-999.0,89,0.00,,,-99.99,,2013-07-26 12:04:00,
2013-07-26 04:09:00,55.3,52.4,30.03,North,0,0.0,-999.0,89,0.00,,,-99.99,,2013-07-26 12:09:00,
2013-07-26 04:14:00,55.2,52.1,30.03,North,0,0.0,-999.0,89,0.00,,,-99.99,,2013-07-26 12:14:00,
2013-07-26 04:19:00,55.4,52.5,30.03,North,0,0.0,-999.0,89,0.00,,,-99.99,,2013-07-26 12:19:00,
2013-07-26 04:24:00,55.5,52.6,30.03,North,0,0.0,-999.0,89,0.00,,,-99.99,,2013-07-26 12:24:00,
2013-07-26 04:29:00,55.2,52.2,30.03,North,0,0.0,-999.0,89,0.00,,,-99.99,,2013-07-26 12:29:00,
2013-07-26 04:34:00,55.2,52.3,30.03,North,0,0.0,-999.0,90,0.00,,,-99.99,,2013-07-26 12:34:00,
2013-07-26 04:39:00,55.2,52.4,30.03,North,0,0.0,-999.0,90,0.00,,,-99.99,,2013-07-26 12:39:00,
2013-07-26 04:44:00,55.1,52.2,30.03,North,0,0.0,-999.0,89,0.00,,,-99.99,,2013-07-26 12:44:00,
2013-07-26 04:49:00,54.8,52.0,30.03,North,0,0.0,-999.0,90,0.00,,,-99.99,,2013-07-26 12:49:00,
2013-07-26 04:54:00,54.7,52.1,30.03,North,0,0.0,-999.0,90,0.00,,,-99.99,,2013-07-26 12:54:00,
2013-07-26 04:59:00,54.5,51.9,30.03,North,0,0.0,-999.0,90,0.00,,,-99.99,,2013-07-26 12:59:00,
2013-07-26 05:04:00,54.1,51.6,30.04,North,0,0.0,-999.0,91,0.00,,,-99.99,,2013-07-26 13:04:00,
2013-07-26 05:09:00,54.1,51.7,30.04,North,0,0.0,-999.0,91,0.00,,,-99.99,,2013-07-26 13:09:00,
2013-07-26 05:14:00,54.2,51.8,30.04,North,0,0.0,-999.0,91,0.00,,,-99.99,,2013-07-26 13:14:00,
2013-07-26 05:19:00,54.4,52.1,30.04,North,0,0.0,-999.0,92,0.00,,,-99.99,,2013-07-26 13:19:00,
2013-07-26 05:24:00,54.4,52.1,30.04,North,0,0.0,-999.0,91,0.00,,,-99.99,,2013-07-26 13:24:00,
2013-07-26 05:29:00,54.4,52.0,30.04,North,0,0.0,-999.0,91,0.00,,,-99.99,,2013-07-26 13:29:00,
2013-07-26 05:34:00,54.2,52.0,30.04,North,0,0.0,-999.0,91,0.00,,,-99.99,,2013-07-26 13:34:00,
2013-07-26 05:39:00,54.4,52.2,30.04,North,0,0.0,-999.0,92,0.00,,,-99.99,,2013-07-26 13:39:00,
2013-07-26 05:44:00,54.5,52.2,30.04,North,0,0.0,-999.0,92,0.00,,,-99.99,,2013-07-26 13:44:00,
2013-07-26 05:49:00,54.5,52.3,30.04,North,0,0.0,-999.0,91,0.00,,,-99.99,,2013-07-26 13:49:00,
2013-07-26 05:54:00,54.7,52.4,30.04,North,0,0.0,-999.0,91,0.00,,,-99.99,,2013-07-26 13:54:00,
2013-07-26 05:59:00,54.9,52.6,30.04,North,0,0.0,-999.0,91,0.00,,,-99.99,,2013-07-26 13:59:00,
2013-07-26 06:04:00,54.9,52.6,30.05,North,0,0.0,-999.0,91,0.00,,,-99.99,,2013-07-26 14:04:00,
2013-07-26 06:09:00,55.2,52.8,30.05,North,0,0.0,-999.0,91,0.00,,,-99.99,,2013-07-26 14:09:00,
2013-07-26 06:14:00,55.3,52.9,30.05,North,0,0.0,-999.0,91,0.00,,,-99.99,,2013-07-26 14:14:00,
2013-07-26 06:19:00,55.3,52.8,30.05,North,0,0.0,-999.0,91,0.00,,,-99.99,,2013-07-26 14:19:00,
2013-07-26 06:24:00,55.5,52.9,30.05,North,0,0.0,-999.0,90,0.00,,,-99.99,,2013-07-26 14:24:00,
2013-07-26 06:29:00,55.7,53.0,30.05,North,0,0.0,-999.0,90,0.00,,,-99.99,,2013-07-26 14:29:00,
2013-07-26 06:34:00,55.6,52.8,30.05,North,0,0.0,-999.0,90,0.00,,,-99.99,,2013-07-26 14:34:00,
2013-07-26 06:39:00,55.7,52.8,30.05,North,0,0.0,-999.0,90,0.00,,,-99.99,,2013-07-26 14:39:00,
2013-07-26 06:44:00,55.7,53.0,30.05,North,0,0.0,-999.0,90,0.00,,,-99.99,,2013-07-26 14:44:00,
2013-07-26 06:49:00,55.9,53.1,30.05,North,0,0.0,-999.0,90,0.00,,,-99.99,,2013-07-26 14:49:00,
2013-07-26 06:54:00,56.0,53.2,30.05,North,0,0.0,-999.0,90,0.00,,,-99.99,,2013-07-26 14:54:00,
2013-07-26 06:59:00,55.9,53.1,30.05,North,0,0.0,-999.0,90,0.00,,,-99.99,,2013-07-26 14:59:00,
2013-07-26 07:04:00,56.0,53.2,30.06,North,0,0.0,-999.0,90,0.00,,,-99.99,,2013-07-26 15:04:00,
2013-07-26 07:09:00,56.0,53.1,30.06,North,0,0.0,-999.0,90,0.00,,,-99.99,,2013-07-26 15:09:00,
2013-07-26 07:15:00,56.0,53.1,30.06,North,0,0.0,-999.0,89,0.00,,,-99.99,,2013-07-26 15:15:00,
2013-07-26 07:20:00,56.0,53.0,30.06,North,0,0.0,-999.0,89,0.00,,,-99.99,,2013-07-26 15:20:00,
2013-07-26 07:25:00,55.8,52.8,30.06,North,0,0.0,-999.0,89,0.00,,,-99.99,,2013-07-26 15:25:00,
2013-07-26 07:30:00,56.2,53.0,30.06,North,0,0.0,-999.0,89,0.00,,,-99.99,,2013-07-26 15:30:00,
2013-07-26 07:35:00,55.9,52.8,30.06,North,0,0.0,-999.0,89,0.00,,,-99.99,,2013-07-26 15:35:00,
2013-07-26 07:40:00,55.9,52.9,30.06,North,0,0.0,-999.0,89,0.00,,,-99.99,,2013-07-26 15:40:00,
2013-07-26 07:45:00,55.8,53.1,30.06,North,0,0.0,-999.0,90,0.00,,,-99.99,,2013-07-26 15:45:00,
2013-07-26 07:50:00,55.9,53.2,30.06,North,0,0.0,-999.0,90,0.00,,,-99.99,,2013-07-26 15:50:00,
2013-07-26 07:56:00,55.7,53.0,30.06,North,0,0.0,-999.0,90,0.00,,,-99.99,,2013-07-26 15:56:00,
2013-07-26 08:03:00,55.8,52.9,30.07,North,0,0.0,-999.0,89,0.00,,,-99.99,,2013-07-26 16:03:00,
2013-07-26 08:08:00,55.7,52.8,30.07,North,0,0.0,-999.0,89,0.00,,,-99.99,,2013-07-26 16:08:00,
2013-07-26 08:13:00,55.7,52.7,30.07,North,0,0.0,-999.0,89,0.00,,,-99.99,,2013-07-26 16:13:00,
2013-07-26 08:18:00,55.7,52.7,30.07,North,0,0.0,-999.0,89,0.00,,,-99.99,,2013-07-26 16:18:00,
2013-07-26 08:23:00,55.8,52.9,30.07,North,0,0.0,-999.0,89,0.00,,,-99.99,,2013-07-26 16:23:00,
2013-07-26 08:28:00,55.8,52.9,30.07,North,0,0.0,-999.0,89,0.00,,,-99.99,,2013-07-26 16:28:00,
2013-07-26 08:33:00,56.0,52.9,30.07,North,0,0.0,-999.0,89,0.00,,,-99.99,,2013-07-26 16:33:00,
2013-07-26 08:38:00,56.2,52.9,30.07,North,0,0.0,-999.0,88,0.00,,,-99.99,,2013-07-26 16:38:00,
2013-07-26 08:43:00,56.0,52.7,30.07,North,0,0.0,-999.0,88,0.00,,,-99.99,,2013-07-26 16:43:00,
2013-07-26 08:48:00,55.7,52.6,30.07,North,0,0.0,-999.0,89,0.00,,,-99.99,,2013-07-26 16:48:00,
2013-07-26 08:53:00,55.7,52.5,30.07,North,0,0.0,-999.0,89,0.00,,,-99.99,,2013-07-26 16:53:00,
2013-07-26 08:58:00,55.6,52.4,30.07,North,0,0.0,-999.0,88,0.00,,,-99.99,,2013-07-26 16:58:00,
2013-07-26 09:03:00,55.5,52.2,30.09,North,0,0.0,-999.0,88,0.00,,,-99.99,,2013-07-26 17:03:00,
2013-07-26 09:08:00,55.5,52.2,30.09,North,0,0.0,-999.0,88,0.00,,,-99.99,,2013-07-26 17:08:00,
2013-07-26 09:13:00,55.5,52.3,30.09,North,0,0.0,-999.0,88,0.00,,,-99.99,,2013-07-26 17:13:00,
2013-07-26 09:18:00,55.7,52.3,30.09,North,0,0.0,-999.0,88,0.00,,,-99.99,,2013-07-26 17:18:00,
2013-07-26 09:23:00,55.6,52.2,30.09,North,0,0.0,-999.0,88,0.00,,,-99.99,,2013-07-26 17:23:00,
2013-07-26 09:28:00,55.5,52.0,30.09,North,0,0.0,-999.0,87,0.00,,,-99.99,,2013-07-26 17:28:00,
2013-07-26 09:33:00,55.9,52.5,30.09,North,0,0.0,-999.0,88,0.00,,,-99.99,,2013-07-26 17:33:00,
2013-07-26 09:38:00,56.3,52.4,30.09,North,0,0.0,-999.0,86,0.00,,,-99.99,,2013-07-26 17:38:00,
2013-07-26 09:43:00,56.5,52.3,30.09,North,0,0.0,-999.0,85,0.00,,,-99.99,,2013-07-26 17:43:00,
2013-07-26 09:48:00,56.8,52.2,30.09,North,0,0.0,-999.0,84,0.00,,,-99.99,,2013-07-26 17:48:00,
2013-07-26 09:53:00,56.7,52.1,30.09,North,0,0.0,-999.0,84,0.00,,,-99.99,,2013-07-26 17:53:00,
2013-07-26 09:58:00,56.4,51.8,30.09,North,0,0.0,-999.0,84,0.00,,,-99.99,,2013-07-26 17:58:00,
2013-07-26 10:03:00,56.3,52.0,30.11,North,0,0.0,-999.0,85,0.00,,,-99.99,,2013-07-26 18:03:00,
2013-07-26 10:08:00,56.3,51.8,30.11,North,0,0.0,-999.0,84,0.00,,,-99.99,,2013-07-26 18:08:00,
2013-07-26 10:13:00,56.1,51.7,30.11,North,0,0.0,-999.0,84,0.00,,,-99.99,,2013-07-26 18:13:00,
2013-07-26 10:18:00,56.0,51.7,30.11,North,0,0.0,-999.0,85,0.00,,,-99.99,,2013-07-26 18:18:00,
2013-07-26 10:23:00,56.2,52.0,30.11,North,0,0.0,-999.0,85,0.00,,,-99.99,,2013-07-26 18:23:00,
2013-07-26 10:28:00,56.6,52.2,30.11,North,0,0.0,-999.0,85,0.00,,,-99.99,,2013-07-26 18:28:00,
2013-07-26 10:33:00,56.8,52.2,30.11,North,0,0.0,-999.0,84,0.00,,,-99.99,,2013-07-26 18:33:00,
2013-07-26 10:38:00,56.2,52.0,30.11,North,0,0.0,-999.0,85,0.00,,,-99.99,,2013-07-26 18:38:00,
2013-07-26 10:43:00,56.3,52.3,30.11,North,0,0.0,-999.0,86,0.00,,,-99.99,,2013-07-26 18:43:00,
2013-07-26 10:48:00,56.1,52.0,30.11,North,0,0.0,-999.0,85,0.00,,,-99.99,,2013-07-26 18:48:00,
2013-07-26 10:53:00,56.0,52.0,30.11,North,0,0.0,-999.0,86,0.00,,,-99.99,,2013-07-26 18:53:00,
2013-07-26 10:58:00,56.1,52.1,30.11,North,0,0.0,-999.0,86,0.00,,,-99.99,,2013-07-26 18:58:00,
2013-07-26 11:03:00,56.6,52.3,30.12,North,0,0.0,-999.0,85,0.00,,,-99.99,,2013-07-26 19:03:00,
2013-07-26 11:08:00,56.8,52.4,30.12,North,0,0.0,-999.0,85,0.00,,,-99.99,,2013-07-26 19:08:00,
2013-07-26 11:13:00,57.2,52.6,30.12,North,0,0.0,-999.0,84,0.00,,,-99.99,,2013-07-26 19:13:00,
2013-07-26 11:18:00,57.7,52.8,30.12,North,0,0.0,-999.0,83,0.00,,,-99.99,,2013-07-26 19:18:00,
2013-07-26 11:23:00,57.8,52.6,30.12,North,0,0.0,-999.0,82,0.00,,,-99.99,,2013-07-26 19:23:00,
2013-07-26 11:28:00,57.6,52.1,30.12,North,0,0.0,-999.0,81,0.00,,,-99.99,,2013-07-26 19:28:00,
2013-07-26 11:33:00,57.9,52.7,30.12,North,0,0.0,-999.0,82,0.00,,,-99.99,,2013-07-26 19:33:00,
2013-07-26 11:38:00,58.5,52.6,30.12,North,0,0.0,-999.0,80,0.00,,,-99.99,,2013-07-26 19:38:00,
2013-07-26 11:43:00,59.5,53.0,30.12,North,0,0.0,-999.0,78,0.00,,,-99.99,,2013-07-26 19:43:00,
2013-07-26 11:48:00,59.7,52.8,30.12,North,0,0.0,-999.0,77,0.00,,,-99.99,,2013-07-26 19:48:00,
2013-07-26 11:53:00,59.2,52.2,30.12,North,0,0.0,-999.0,77,0.00,,,-99.99,,2013-07-26 19:53:00,
2013-07-26 11:58:00,59.5,52.9,30.12,North,0,0.0,-999.0,78,0.00,,,-99.99,,2013-07-26 19:58:00,
2013-07-26 12:04:00,60.0,53.3,30.12,North,0,0.0,-999.0,78,0.00,,,-99.99,,2013-07-26 20:04:00,
2013-07-26 12:09:00,60.6,53.3,30.12,North,0,0.0,-999.0,76,0.00,,,-99.99,,2013-07-26 20:09:00,
2013-07-26 12:14:00,60.7,52.9,30.12,North,0,0.0,-999.0,75,0.00,,,-99.99,,2013-07-26 20:14:00,
2013-07-26 12:19:00,61.1,52.9,30.12,North,0,0.0,-999.0,74,0.00,,,-99.99,,2013-07-26 20:19:00,
2013-07-26 12:24:00,61.4,53.1,30.12,North,0,0.0,-999.0,74,0.00,,,-99.99,,2013-07-26 20:24:00,
2013-07-26 12:29:00,60.5,52.5,30.12,North,0,0.0,-999.0,74,0.00,,,-99.99,,2013-07-26 20:29:00,
2013-07-26 12:34:00,60.3,52.9,30.12,North,0,0.0,-999.0,76,0.00,,,-99.99,,2013-07-26 20:34:00,
2013-07-26 12:39:00,60.3,52.8,30.12,North,0,0.0,-999.0,76,0.00,,,-99.99,,2013-07-26 20:39:00,
2013-07-26 12:44:00,60.2,52.9,30.12,North,0,0.0,-999.0,76,0.00,,,-99.99,,2013-07-26 20:44:00,
2013-07-26 12:49:00,60.0,53.0,30.12,North,0,0.0,-999.0,77,0.00,,,-99.99,,2013-07-26 20:49:00,
2013-07-26 12:54:00,59.7,52.7,30.12,North,0,0.0,-999.0,77,0.00,,,-99.99,,2013-07-26 20:54:00,
2013-07-26 12:59:00,60.0,52.8,30.12,North,0,0.0,-999.0,77,0.00,,,-99.99,,2013-07-26 20:59:00,
2013-07-26 13:04:00,59.9,53.0,30.14,North,0,0.0,-999.0,77,0.00,,,-99.99,,2013-07-26 21:04:00,
2013-07-26 13:09:00,59.3,52.8,30.14,North,0,0.0,-999.0,79,0.00,,,-99.99,,2013-07-26 21:09:00,
2013-07-26 13:14:00,58.9,52.8,30.14,North,0,0.0,-999.0,79,0.00,,,-99.99,,2013-07-26 21:14:00,
2013-07-26 13:19:00,59.6,53.2,30.14,North,0,0.0,-999.0,79,0.00,,,-99.99,,2013-07-26 21:19:00,
2013-07-26 13:24:00,59.4,52.9,30.14,North,0,0.0,-999.0,78,0.00,,,-99.99,,2013-07-26 21:24:00,
2013-07-26 13:29:00,59.9,53.5,30.14,North,0,0.0,-999.0,79,0.00,,,-99.99,,2013-07-26 21:29:00,
2013-07-26 13:34:00,59.6,52.9,30.14,North,0,0.0,-999.0,78,0.00,,,-99.99,,2013-07-26 21:34:00,
2013-07-26 13:39:00,59.2,52.8,30.14,North,0,0.0,-999.0,79,0.00,,,-99.99,,2013-07-26 21:39:00,
2013-07-26 13:44:00,59.2,52.8,30.14,North,0,0.0,-999.0,79,0.00,,,-99.99,,2013-07-26 21:44:00,
2013-07-26 13:49:00,58.8,52.8,30.14,North,0,0.0,-999.0,80,0.00,,,-99.99,,2013-07-26 21:49:00,
2013-07-26 13:54:00,59.2,53.2,30.14,North,0,0.0,-999.0,80,0.00,,,-99.99,,2013-07-26 21:54:00,
2013-07-26 14:00:00,59.2,53.1,30.14,North,0,0.0,-999.0,80,0.00,,,-99.99,,2013-07-26 22:00:00,
2013-07-26 14:05:00,59.3,53.3,30.13,North,0,0.0,-999.0,80,0.00,,,-99.99,,2013-07-26 22:05:00,
2013-07-26 14:12:00,58.4,52.9,30.13,North,0,0.0,-999.0,81,0.00,,,-99.99,,2013-07-26 22:12:00,
2013-07-26 14:17:00,58.9,53.3,30.13,North,0,0.0,-999.0,81,0.00,,,-99.99,,2013-07-26 22:17:00,
2013-07-26 14:23:00,59.2,53.3,30.13,North,0,0.0,-999.0,80,0.00,,,-99.99,,2013-07-26 22:23:00,
2013-07-26 14:28:00,58.8,53.0,30.13,North,0,0.0,-999.0,80,0.00,,,-99.99,,2013-07-26 22:28:00,
2013-07-26 14:33:00,59.5,53.5,30.13,North,0,0.0,-999.0,80,0.00,,,-99.99,,2013-07-26 22:33:00,
2013-07-26 14:34:00,59.6,53.5,30.13,North,0,0.0,-999.0,79,0.00,,,-99.99,,2013-07-26 22:34:00,
2013-07-26 14:39:00,59.0,52.8,30.13,North,0,0.0,-999.0,79,0.00,,,-99.99,,2013-07-26 22:39:00,
2013-07-26 14:44:00,59.0,53.1,30.13,North,0,0.0,-999.0,80,0.00,,,-99.99,,2013-07-26 22:44:00,
2013-07-26 14:49:00,59.0,53.2,30.13,North,0,0.0,-999.0,81,0.00,,,-99.99,,2013-07-26 22:49:00,
2013-07-26 14:54:00,58.4,53.2,30.13,North,0,0.0,-999.0,82,0.00,,,-99.99,,2013-07-26 22:54:00,
2013-07-26 14:59:00,58.2,53.2,30.13,North,0,0.0,-999.0,83,0.00,,,-99.99,,2013-07-26 22:59:00,
2013-07-26 15:04:00,58.5,53.2,30.14,North,0,0.0,-999.0,82,0.00,,,-99.99,,2013-07-26 23:04:00,
2013-07-26 15:09:00,59.3,53.5,30.14,North,0,0.0,-999.0,80,0.00,,,-99.99,,2013-07-26 23:09:00,
2013-07-26 15:14:00,59.1,53.3,30.14,North,0,0.0,-999.0,80,0.00,,,-99.99,,2013-07-26 23:14:00,
2013-07-26 15:19:00,59.3,53.6,30.14,North,0,0.0,-999.0,81,0.00,,,-99.99,,2013-07-26 23:19:00,
2013-07-26 15:24:00,59.0,52.9,30.14,North,0,0.0,-999.0,80,0.00,,,-99.99,,2013-07-26 23:24:00,
2013-07-26 15:29:00,58.8,53.5,30.14,North,0,0.0,-999.0,82,0.00,,,-99.99,,2013-07-26 23:29:00,
2013-07-26 15:34:00,58.7,53.0,30.14,North,0,0.0,-999.0,81,0.00,,,-99.99,,2013-07-26 23:34:00,
2013-07-26 15:39:00,58.8,53.4,30.14,North,0,0.0,-999.0,81,0.00,,,-99.99,,2013-07-26 23:39:00,
2013-07-26 15:44:00,59.0,53.1,30.14,North,0,0.0,-999.0,80,0.00,,,-99.99,,2013-07-26 23:44:00,
2013-07-26 15:49:00,58.5,52.8,30.14,North,0,0.0,-999.0,81,0.00,,,-99.99,,2013-07-26 23:49:00,
2013-07-26 15:54:00,57.7,53.0,30.14,North,0,0.0,-999.0,84,0.00,,,-99.99,,2013-07-26 23:54:00,
2013-07-26 15:59:00,58.3,53.3,30.14,North,0,0.0,-999.0,83,0.00,,,-99.99,,2013-07-26 23:59:00,
2013-07-26 16:04:00,58.3,52.7,30.15,North,0,0.0,-999.0,81,0.00,,,-99.99,,2013-07-27 00:04:00,
2013-07-26 16:09:00,57.1,52.4,30.15,North,0,0.0,-999.0,84,0.00,,,-99.99,,2013-07-27 00:09:00,
2013-07-26 16:14:00,56.8,52.9,30.15,North,0,0.0,-999.0,86,0.00,,,-99.99,,2013-07-27 00:14:00,
2013-07-26 16:20:00,57.2,53.0,30.15,North,0,0.0,-999.0,85,0.00,,,-99.99,,2013-07-27 00:20:00,
2013-07-26 16:25:00,57.7,52.6,30.15,North,0,0.0,-999.0,82,0.00,,,-99.99,,2013-07-27 00:25:00,
2013-07-26 16:30:00,57.7,52.8,30.15,North,0,0.0,-999.0,83,0.00,,,-99.99,,2013-07-27 00:30:00,
2013-07-26 16:35:00,57.7,53.2,30.15,North,0,0.0,-999.0,84,0.00,,,-99.99,,2013-07-27 00:35:00,
2013-07-26 16:40:00,57.8,53.2,30.15,North,0,0.0,-999.0,84,0.00,,,-99.99,,2013-07-27 00:40:00,
2013-07-26 16:45:00,58.2,53.1,30.15,North,0,0.0,-999.0,83,0.00,,,-99.99,,2013-07-27 00:45:00,
2013-07-26 16:50:00,58.6,53.3,30.15,North,0,0.0,-999.0,82,0.00,,,-99.99,,2013-07-27 00:50:00,
2013-07-26 16:55:00,57.1,52.5,30.15,North,0,0.0,-999.0,84,0.00,,,-99.99,,2013-07-27 00:55:00,
2013-07-26 17:00:00,57.9,53.1,30.15,North,0,0.0,-999.0,83,0.00,,,-99.99,,2013-07-27 01:00:00,
2013-07-26 17:05:00,57.6,52.6,30.18,North,0,0.0,-999.0,83,0.00,,,-99.99,,2013-07-27 01:05:00,
2013-07-26 17:10:00,57.6,53.2,30.18,North,0,0.0,-999.0,85,0.00,,,-99.99,,2013-07-27 01:10:00,
2013-07-26 17:15:00,58.0,53.4,30.18,North,0,0.0,-999.0,84,0.00,,,-99.99,,2013-07-27 01:15:00,
2013-07-26 17:20:00,58.3,53.2,30.18,North,0,0.0,-999.0,82,0.00,,,-99.99,,2013-07-27 01:20:00,
2013-07-26 17:25:00,58.2,53.1,30.18,North,0,0.0,-999.0,82,0.00,,,-99.99,,2013-07-27 01:25:00,
2013-07-26 17:30:00,58.9,53.4,30.18,North,0,0.0,-999.0,81,0.00,,,-99.99,,2013-07-27 01:30:00,
2013-07-26 17:36:00,58.5,53.3,30.18,North,0,0.0,-999.0,82,0.00,,,-99.99,,2013-07-27 01:36:00,
2013-07-26 17:43:00,58.2,53.1,30.18,North,0,0.0,-999.0,83,0.00,,,-99.99,,2013-07-27 01:43:00,
2013-07-26 17:48:00,58.3,53.5,30.18,North,0,0.0,-999.0,83,0.00,,,-99.99,,2013-07-27 01:48:00,
2013-07-26 17:53:00,58.7,53.2,30.18,North,0,0.0,-999.0,81,0.00,,,-99.99,,2013-07-27 01:53:00,
2013-07-26 17:59:00,58.3,52.9,30.18,North,0,0.0,-999.0,82,0.00,,,-99.99,,2013-07-27 01:59:00,
2013-07-26 18:04:00,57.8,52.9,30.17,North,0,0.0,-999.0,83,0.00,,,-99.99,,2013-07-27 02:04:00,
2013-07-26 18:09:00,58.6,53.4,30.17,North,0,0.0,-999.0,82,0.00,,,-99.99,,2013-07-27 02:09:00,
2013-07-26 18:14:00,58.0,53.2,30.17,North,0,0.0,-999.0,83,0.00,,,-99.99,,2013-07-27 02:14:00,
2013-07-26 18:19:00,58.1,53.2,30.17,North,0,0.0,-999.0,83,0.00,,,-99.99,,2013-07-27 02:19:00,
2013-07-26 18:25:00,57.5,53.1,30.17,North,0,0.0,-999.0,85,0.00,,,-99.99,,2013-07-27 02:25:00,
2013-07-26 18:30:00,58.0,53.4,30.17,North,0,0.0,-999.0,84,0.00,,,-99.99,,2013-07-27 02:30:00,
2013-07-26 18:35:00,57.5,53.1,30.17,North,0,0.0,-999.0,85,0.00,,,-99.99,,2013-07-27 02:35:00,
2013-07-26 18:40:00,57.9,53.1,30.17,North,0,0.0,-999.0,84,0.00,,,-99.99,,2013-07-27 02:40:00,
2013-07-26 18:45:00,58.2,53.3,30.17,North,0,0.0,-999.0,83,0.00,,,-99.99,,2013-07-27 02:45:00,
2013-07-26 18:50:00,58.2,53.2,30.17,North,0,0.0,-999.0,83,0.00,,,-99.99,,2013-07-27 02:50:00,
2013-07-26 18:55:00,58.6,53.2,30.17,North,0,0.0,-999.0,82,0.00,,,-99.99,,2013-07-27 02:55:00,
2013-07-26 19:00:00,58.7,53.3,30.17,North,0,0.0,-999.0,82,0.00,,,-99.99,,2013-07-27 03:00:00,
2013-07-26 19:05:00,58.2,53.2,30.18,North,0,0.0,-999.0,83,0.00,,,-99.99,,2013-07-27 03:05:00,
2013-07-26 19:10:00,57.9,53.0,30.18,North,0,0.0,-999.0,83,0.00,,,-99.99,,2013-07-27 03:10:00,
2013-07-26 19:15:00,58.3,53.3,30.18,North,0,0.0,-999.0,83,0.00,,,-99.99,,2013-07-27 03:15:00,
2013-07-26 19:20:00,57.8,53.0,30.18,North,0,0.0,-999.0,83,0.00,,,-99.99,,2013-07-27 03:20:00,
2013-07-26 19:25:00,57.3,52.9,30.18,North,0,0.0,-999.0,85,0.00,,,-99.99,,2013-07-27 03:25:00,
2013-07-26 19:32:00,57.2,52.7,30.18,North,0,0.0,-999.0,84,0.00,,,-99.99,,2013-07-27 03:32:00,
2013-07-26 19:37:00,56.8,52.5,30.18,North,0,0.0,-999.0,85,0.00,,,-99.99,,2013-07-27 03:37:00,
2013-07-26 19:42:00,56.7,52.8,30.18,North,0,0.0,-999.0,86,0.00,,,-99.99,,2013-07-27 03:42:00,
2013-07-26 19:47:00,56.6,52.5,30.18,North,0,0.0,-999.0,86,0.00,,,-99.99,,2013-07-27 03:47:00,
2013-07-26 19:52:00,56.3,52.5,30.18,North,0,0.0,-999.0,86,0.00,,,-99.99,,2013-07-27 03:52:00,
2013-07-26 19:57:00,56.1,52.7,30.18,North,0,0.0,-999.0,87,0.00,,,-99.99,,2013-07-27 03:57:00,
2013-07-26 20:01:00,56.3,52.7,30.18,North,0,0.0,-999.0,87,0.00,,,-99.99,,2013-07-27 04:01:00,
2013-07-26 20:04:00,56.4,52.8,30.18,North,0,0.0,-999.0,87,0.00,,,-99.99,,2013-07-27 04:04:00,
2013-07-26 20:05:00,56.3,52.7,30.18,North,0,0.0,-999.0,87,0.00,,,-99.99,,2013-07-27 04:05:00,
2013-07-26 20:07:00,56.3,52.7,30.18,North,0,0.0,-999.0,87,0.00,,,-99.99,,2013-07-27 04:07:00,
2013-07-26 20:12:00,56.4,52.8,30.18,North,0,0.0,-999.0,87,0.00,,,-99.99,,2013-07-27 04:12:00,
2013-07-26 20:15:00,56.4,52.6,30.18,North,0,0.0,-999.0,87,0.00,,,-99.99,,2013-07-27 04:15:00,
2013-07-26 20:20:00,56.4,52.5,30.18,North,0,0.0,-999.0,86,0.00,,,-99.99,,2013-07-27 04:20:00,
2013-07-26 20:25:00,55.6,52.0,30.18,North,0,0.0,-999.0,87,0.00,,,-99.99,,2013-07-27 04:25:00,
2013-07-26 20:30:00,55.4,52.2,30.18,North,0,0.0,-999.0,88,0.00,,,-99.99,,2013-07-27 04:30:00,
2013-07-26 20:35:00,55.8,52.5,30.18,North,0,0.0,-999.0,88,0.00,,,-99.99,,2013-07-27 04:35:00,
2013-07-26 20:40:00,55.5,52.2,30.18,North,0,0.0,-999.0,88,0.00,,,-99.99,,2013-07-27 04:40:00,
2013-07-26 20:45:00,55.8,52.5,30.18,North,0,0.0,-999.0,88,0.00,,,-99.99,,2013-07-27 04:45:00,
2013-07-26 20:50:00,56.1,52.5,30.18,North,0,0.0,-999.0,87,0.00,,,-99.99,,2013-07-27 04:50:00,
2013-07-26 20:55:00,55.5,52.2,30.18,North,0,0.0,-999.0,88,0.00,,,-99.99,,2013-07-27 04:55:00,
2013-07-26 21:00:00,55.7,52.5,30.18,North,0,0.0,-999.0,89,0.00,,,-99.99,,2013-07-27 05:00:00,
2013-07-26 21:05:00,55.7,52.4,30.20,North,0,0.0,-999.0,88,0.00,,,-99.99,,2013-07-27 05:05:00,
2013-07-26 21:10:00,55.0,52.0,30.20,North,0,0.0,-999.0,89,0.00,,,-99.99,,2013-07-27 05:10:00,
2013-07-26 21:15:00,54.5,51.9,30.20,North,0,0.0,-999.0,90,0.00,,,-99.99,,2013-07-27 05:15:00,
2013-07-26 21:20:00,54.2,51.8,30.20,North,0,0.0,-999.0,91,0.00,,,-99.99,,2013-07-27 05:20:00,
2013-07-26 21:25:00,54.4,52.2,30.20,North,0,0.0,-999.0,92,0.00,,,-99.99,,2013-07-27 05:25:00,
2013-07-26 21:30:00,54.1,52.0,30.20,North,0,0.0,-999.0,92,0.00,,,-99.99,,2013-07-27 05:30:00,
2013-07-26 21:35:00,54.5,52.4,30.20,North,0,0.0,-999.0,92,0.00,,,-99.99,,2013-07-27 05:35:00,
2013-07-26 21:40:00,54.8,52.5,30.20,North,0,0.0,-999.0,91,0.00,,,-99.99,,2013-07-27 05:40:00,
2013-07-26 21:45:00,54.5,52.1,30.20,North,0,0.0,-999.0,91,0.00,,,-99.99,,2013-07-27 05:45:00,
2013-07-26 21:52:00,54.2,52.0,30.20,North,0,0.0,-999.0,92,0.00,,,-99.99,,2013-07-27 05:52:00,
2013-07-26 21:57:00,53.9,51.8,30.20,North,0,0.0,-999.0,92,0.00,,,-99.99,,2013-07-27 05:57:00,
2013-07-26 22:03:00,53.6,51.5,30.18,North,0,0.0,-999.0,92,0.00,,,-99.99,,2013-07-27 06:03:00,
2013-07-26 22:08:00,53.6,51.7,30.18,North,0,0.0,-999.0,93,0.00,,,-99.99,,2013-07-27 06:08:00,
2013-07-26 22:13:00,53.9,51.8,30.18,North,0,0.0,-999.0,92,0.00,,,-99.99,,2013-07-27 06:13:00,
2013-07-26 22:18:00,53.6,51.5,30.18,North,0,0.0,-999.0,92,0.00,,,-99.99,,2013-07-27 06:18:00,
2013-07-26 22:23:00,53.8,51.6,30.18,North,0,0.0,-999.0,92,0.00,,,-99.99,,2013-07-27 06:23:00,
2013-07-26 22:28:00,54.0,51.7,30.18,North,0,0.0,-999.0,91,0.00,,,-99.99,,2013-07-27 06:28:00,
2013-07-26 22:33:00,54.0,51.7,30.18,North,0,0.0,-999.0,91,0.00,,,-99.99,,2013-07-27 06:33:00,
2013-07-26 22:38:00,53.5,51.3,30.18,North,0,0.0,-999.0,92,0.00,,,-99.99,,2013-07-27 06:38:00,
2013-07-26 22:43:00,53.5,51.5,30.18,North,0,0.0,-999.0,92,0.00,,,-99.99,,2013-07-27 06:43:00,
2013-07-26 22:48:00,53.3,51.3,30.18,North,0,0.0,-999.0,93,0.00,,,-99.99,,2013-07-27 06:48:00,
2013-07-26 22:53:00,53.5,51.5,30.18,North,0,0.0,-999.0,92,0.00,,,-99.99,,2013-07-27 06:53:00,
2013-07-26 22:58:00,53.5,51.4,30.18,North,0,0.0,-999.0,92,0.00,,,-99.99,,2013-07-27 06:58:00,
2013-07-26 23:03:00,53.3,51.1,30.22,North,0,0.0,-999.0,92,0.00,,,-99.99,,2013-07-27 07:03:00,
2013-07-26 23:08:00,53.2,51.0,30.22,North,0,0.0,-999.0,92,0.00,,,-99.99,,2013-07-27 07:08:00,
2013-07-26 23:13:00,53.0,51.0,30.22,North,0,0.0,-999.0,92,0.00,,,-99.99,,2013-07-27 07:13:00,
2013-07-26 23:18:00,53.0,50.9,30.22,North,0,0.0,-999.0,92,0.00,,,-99.99,,2013-07-27 07:18:00,
2013-07-26 23:23:00,53.0,50.8,30.22,North,0,0.0,-999.0,92,0.00,,,-99.99,,2013-07-27 07:23:00,
2013-07-26 23:28:00,52.7,50.7,30.22,North,0,0.0,-999.0,92,0.00,,,-99.99,,2013-07-27 07:28:00,
2013-07-26 23:33:00,52.8,50.9,30.22,North,0,0.0,-999.0,92,0.00,,,-99.99,,2013-07-27 07:33:00,
2013-07-26 23:38:00,52.8,50.9,30.22,North,0,0.0,-999.0,93,0.00,,,-99.99,,2013-07-27 07:38:00,
2013-07-26 23:43:00,52.7,50.7,30.22,North,0,0.0,-999.0,92,0.00,,,-99.99,,2013-07-27 07:43:00,
2013-07-26 23:48:00,52.9,51.0,30.22,North,0,0.0,-999.0,93,0.00,,,-99.99,,2013-07-27 07:48:00,
2013-07-26 23:53:00,53.0,51.1,30.22,North,0,0.0,-999.0,93,0.00,,,-99.99,,2013-07-27 07:53:00,
2013-07-26 23:58:00,52.8,50.9,30.22,North,0,0.0,-999.0,93,0.00,,,-99.99,,2013-07-27 07:58:00,